createdAt,value
2023-11-13T00:00:31.893Z,98536.13
2023-11-13T00:04:34.334Z,98538.81
2023-11-13T00:08:36.871Z,98553.16
2023-11-13T00:12:39.255Z,98545.72
2023-11-13T00:16:41.590Z,98546.25
2023-11-13T00:20:46.651Z,98539.66
2023-11-13T00:24:49.144Z,98551.09
2023-11-13T00:28:51.619Z,98550.78
2023-11-13T00:32:53.911Z,98533.22
2023-11-13T00:36:56.179Z,98532.47
2023-11-13T00:41:03.101Z,98540.88
2023-11-13T00:45:07.858Z,98548.13
2023-11-13T00:49:10.518Z,98537.47
2023-11-13T00:53:12.886Z,98532.91
2023-11-13T00:57:15.659Z,98537.78
2023-11-13T01:01:18.515Z,98535.16
2023-11-13T01:05:22.116Z,98555.88
2023-11-13T01:09:24.556Z,98563.88
2023-11-13T01:13:26.858Z,98567.38
2023-11-13T01:17:29.152Z,98566.28
2023-11-13T01:21:32.526Z,98574.50
2023-11-13T01:25:35.767Z,98574.03
2023-11-13T01:29:37.930Z,98584.00
2023-11-13T01:33:40.234Z,98573.13
2023-11-13T01:37:42.595Z,98580.78
2023-11-13T01:41:45.252Z,98581.31
2023-11-13T01:45:53.424Z,98577.91
2023-11-13T01:49:56.457Z,98571.03
2023-11-13T01:53:59.934Z,98579.28
2023-11-13T01:58:03.344Z,98566.78
2023-11-13T02:02:05.998Z,98562.25
2023-11-13T02:06:12.059Z,98547.59
2023-11-13T02:10:18.927Z,98560.38
2023-11-13T02:14:22.775Z,98533.22
2023-11-13T02:18:25.069Z,98529.78
2023-11-13T02:22:27.374Z,98526.81
2023-11-13T02:26:29.795Z,98527.31
2023-11-13T02:30:37.865Z,98528.38
2023-11-13T02:34:40.079Z,98527.75
2023-11-13T02:38:42.795Z,98532.00
2023-11-13T02:42:45.235Z,98534.66
2023-11-13T02:46:48.825Z,98546.09
2023-11-13T02:50:53.935Z,98549.81
2023-11-13T02:54:56.677Z,98555.84
2023-11-13T02:59:00.006Z,98571.50
2023-11-13T03:03:02.793Z,98565.00
2023-11-13T03:07:05.373Z,98531.50
2023-11-13T03:11:07.485Z,98544.81
2023-11-13T03:15:12.681Z,98549.38
2023-11-13T03:19:14.734Z,98560.75
2023-11-13T03:23:16.802Z,98570.66
2023-11-13T03:27:18.833Z,98578.63
2023-11-13T03:31:21.697Z,98584.50
2023-11-13T03:35:23.724Z,98589.25
2023-11-13T03:39:25.764Z,98579.94
2023-11-13T03:43:28.068Z,98581.22
2023-11-13T03:47:32.379Z,98559.63
2023-11-13T03:51:35.932Z,98538.09
2023-11-13T03:55:37.964Z,98545.91
2023-11-13T03:59:40.038Z,98549.94
2023-11-13T04:03:42.519Z,98531.59
2023-11-13T04:07:45.187Z,98534.09
2023-11-13T04:11:47.894Z,98533.56
2023-11-13T04:15:50.511Z,98549.16
2023-11-13T04:19:52.719Z,98554.28
2023-11-13T04:23:54.687Z,98562.25
2023-11-13T04:27:58.469Z,98560.78
2023-11-13T04:32:00.515Z,98602.66
2023-11-13T04:36:03.231Z,98611.16
2023-11-13T04:40:06.491Z,98647.44
2023-11-13T04:44:09.285Z,98636.81
2023-11-13T04:48:11.343Z,98656.31
2023-11-13T04:52:13.399Z,98658.47
2023-11-13T04:56:16.033Z,98679.91
2023-11-13T05:00:18.563Z,98667.00
2023-11-13T05:04:20.727Z,98650.34
2023-11-13T05:08:22.877Z,98650.66
2023-11-13T05:12:24.918Z,98643.25
2023-11-13T05:16:29.223Z,98641.47
2023-11-13T05:20:31.539Z,98648.41
2023-11-13T05:24:33.726Z,98634.88
2023-11-13T05:28:36.005Z,98622.19
2023-11-13T05:32:38.007Z,98614.63
2023-11-13T05:36:39.939Z,98630.09
2023-11-13T05:40:41.917Z,98644.00
2023-11-13T05:44:45.342Z,98640.75
2023-11-13T05:48:47.365Z,98655.91
2023-11-13T05:52:49.410Z,98663.75
2023-11-13T05:56:51.758Z,98662.06
2023-11-13T06:00:53.806Z,98668.78
2023-11-13T06:04:55.893Z,98678.53
2023-11-13T06:08:57.987Z,98678.53
2023-11-13T06:13:00.090Z,98683.41
2023-11-13T06:17:03.520Z,98697.72
2023-11-13T06:21:05.843Z,98695.38
2023-11-13T06:25:08.758Z,98699.38
2023-11-13T06:29:12.133Z,98709.53
2023-11-13T06:33:14.156Z,98693.84
2023-11-13T06:37:17.023Z,98701.59
2023-11-13T06:41:19.147Z,98673.53
2023-11-13T06:45:21.354Z,98678.03
2023-11-13T06:49:23.471Z,98702.38
2023-11-13T06:53:27.102Z,98693.22
2023-11-13T06:57:29.144Z,98713.38
2023-11-13T07:01:39.066Z,98719.31
2023-11-13T07:05:41.162Z,98701.34
2023-11-13T07:09:43.129Z,98718.25
2023-11-13T07:13:45.464Z,98721.69
2023-11-13T07:17:47.634Z,98724.88
2023-11-13T07:21:50.335Z,98731.88
2023-11-13T07:25:53.688Z,98723.44
2023-11-13T07:29:57.725Z,98748.13
2023-11-13T07:34:00.067Z,98753.63
2023-11-13T07:38:02.445Z,98759.69
2023-11-13T07:42:05.027Z,98746.72
2023-11-13T07:46:10.470Z,98741.13
2023-11-13T07:50:13.397Z,98726.34
2023-11-13T07:54:16.025Z,98719.75
2023-11-13T07:58:18.064Z,98715.59
2023-11-13T08:02:21.436Z,98711.63
2023-11-13T08:06:23.530Z,98715.84
2023-11-13T08:10:27.527Z,98727.84
2023-11-13T08:14:31.947Z,98738.09
2023-11-13T08:18:34.152Z,98760.41
2023-11-13T08:22:37.339Z,98760.66
2023-11-13T08:26:39.823Z,98763.59
2023-11-13T08:30:47.972Z,98788.34
2023-11-13T08:34:50.192Z,98782.13
2023-11-13T08:38:53.660Z,98772.09
2023-11-13T08:42:57.603Z,98761.28
2023-11-13T08:47:00.722Z,98764.97
2023-11-13T08:51:02.900Z,98769.34
2023-11-13T08:55:05.217Z,98768.34
2023-11-13T08:59:10.963Z,98794.75
2023-11-13T09:03:13.259Z,98808.50
2023-11-13T09:07:18.528Z,98820.53
2023-11-13T09:11:22.521Z,98828.03
2023-11-13T09:15:24.611Z,98835.53
2023-11-13T09:19:29.449Z,98835.59
2023-11-13T09:23:31.470Z,98835.53
2023-11-13T09:27:34.101Z,98836.13
2023-11-13T09:31:36.453Z,98837.78
2023-11-13T09:35:38.855Z,98835.72
2023-11-13T09:39:43.886Z,98836.28
2023-11-13T09:43:47.179Z,98848.56
2023-11-13T09:47:50.900Z,98857.25
2023-11-13T09:51:55.231Z,98857.56
2023-11-13T09:55:57.767Z,98857.03
2023-11-13T10:00:01.162Z,98851.78
2023-11-13T10:04:06.582Z,98847.38
2023-11-13T10:08:09.058Z,98849.00
2023-11-13T10:12:13.638Z,98842.91
2023-11-13T10:16:18.184Z,98827.69
2023-11-13T10:20:21.791Z,98839.19
2023-11-13T10:24:33.947Z,98835.69
2023-11-13T10:28:43.633Z,98808.72
2023-11-13T10:32:46.608Z,98808.94
2023-11-13T10:37:11.808Z,98807.06
2023-11-13T10:41:20.918Z,98803.59
2023-11-13T10:45:23.596Z,98813.25
2023-11-13T10:49:26.558Z,98808.44
2023-11-13T10:53:32.688Z,98811.09
2023-11-13T10:57:34.860Z,98815.09
2023-11-13T11:01:39.992Z,98814.53
2023-11-13T11:05:43.996Z,98815.56
2023-11-13T11:09:46.721Z,98809.16
2023-11-13T11:14:10.972Z,98817.25
2023-11-13T11:18:22.677Z,98824.22
2023-11-13T11:22:46.998Z,98824.22
2023-11-13T11:27:00.070Z,98810.00
2023-11-13T11:31:05.838Z,98812.16
2023-11-13T11:35:08.681Z,98807.63
2023-11-13T11:39:22.989Z,98813.22
2023-11-13T11:43:34.743Z,98800.63
2023-11-13T11:47:37.800Z,98800.25
2023-11-13T11:51:40.173Z,98783.88
2023-11-13T11:55:42.431Z,98784.22
2023-11-13T11:59:44.903Z,98757.50
2023-11-13T12:03:47.185Z,98754.28
2023-11-13T12:07:53.761Z,98753.28
2023-11-13T12:11:56.066Z,98751.69
2023-11-13T12:15:59.941Z,98739.38
2023-11-13T12:20:09.811Z,98737.34
2023-11-13T12:24:20.707Z,98742.16
2023-11-13T12:28:24.992Z,98742.00
2023-11-13T12:32:29.408Z,98745.41
2023-11-13T12:36:32.168Z,98740.56
2023-11-13T12:40:35.628Z,98735.56
2023-11-13T12:44:38.987Z,98728.88
2023-11-13T12:48:42.722Z,98741.47
2023-11-13T12:52:47.939Z,98727.34
2023-11-13T12:56:50.003Z,98720.66
2023-11-13T13:00:52.861Z,98723.09
2023-11-13T13:04:59.544Z,98744.47
2023-11-13T13:09:03.677Z,98736.44
2023-11-13T13:13:06.615Z,98734.56
2023-11-13T13:17:09.077Z,98750.09
2023-11-13T13:21:11.339Z,98749.53
2023-11-13T13:25:13.460Z,98757.03
2023-11-13T13:29:16.579Z,98756.75
2023-11-13T13:33:18.872Z,98760.50
2023-11-13T13:37:24.890Z,98755.97
2023-11-13T13:41:27.946Z,98756.25
2023-11-13T13:45:33.030Z,98758.03
2023-11-13T13:49:39.049Z,98746.81
2023-11-13T13:53:47.780Z,98736.91
2023-11-13T13:57:54.951Z,98746.34
2023-11-13T14:02:02.408Z,98748.75
2023-11-13T14:06:15.357Z,98764.25
2023-11-13T14:10:19.926Z,98764.28
2023-11-13T14:14:22.881Z,98759.50
2023-11-13T14:18:26.518Z,98760.06
2023-11-13T14:22:28.747Z,98762.19
2023-11-13T14:26:31.437Z,98767.53
2023-11-13T14:30:33.532Z,98756.31
2023-11-13T14:34:35.942Z,98771.00
2023-11-13T14:38:39.192Z,98778.47
2023-11-13T14:42:43.636Z,98777.69
2023-11-13T14:46:45.841Z,98769.38
2023-11-13T14:50:48.753Z,98780.06
2023-11-13T14:54:50.988Z,98781.91
2023-11-13T14:58:53.655Z,98780.31
2023-11-13T15:02:55.906Z,98777.88
2023-11-13T15:06:58.036Z,98787.78
2023-11-13T15:11:00.101Z,98782.72
2023-11-13T15:15:02.643Z,98810.28
2023-11-13T15:19:05.087Z,98804.94
2023-11-13T15:23:20.376Z,98792.38
2023-11-13T15:27:30.568Z,98807.88
2023-11-13T15:31:32.714Z,98807.91
2023-11-13T15:35:36.723Z,98817.50
2023-11-13T15:39:42.237Z,98821.53
2023-11-13T15:43:44.327Z,98815.91
2023-11-13T15:47:46.928Z,98817.00
2023-11-13T15:51:49.666Z,98819.66
2023-11-13T15:55:52.020Z,98819.13
2023-11-13T15:59:57.745Z,98835.97
2023-11-13T16:04:03.448Z,98813.22
2023-11-13T16:08:11.593Z,98822.59
2023-11-13T16:12:18.191Z,98805.50
2023-11-13T16:16:23.745Z,98818.88
2023-11-13T16:20:30.002Z,98799.84
2023-11-13T16:24:36.389Z,98801.72
2023-11-13T16:28:41.314Z,98780.88
2023-11-13T16:32:44.067Z,98775.84
2023-11-13T16:36:46.163Z,98775.00
2023-11-13T16:40:48.999Z,98776.59
2023-11-13T16:44:51.058Z,98778.28
2023-11-13T16:48:53.317Z,98762.25
2023-11-13T16:52:55.500Z,98762.19
2023-11-13T16:56:58.081Z,98765.13
2023-11-13T17:01:00.159Z,98783.34
2023-11-13T17:05:02.486Z,98784.66
2023-11-13T17:09:04.798Z,98792.94
2023-11-13T17:13:07.586Z,98798.84
2023-11-13T17:17:10.064Z,98798.00
2023-11-13T17:21:13.929Z,98789.22
2023-11-13T17:25:15.950Z,98809.53
2023-11-13T17:29:18.152Z,98818.34
2023-11-13T17:33:23.464Z,98819.13
2023-11-13T17:37:25.483Z,98833.81
2023-11-13T17:41:27.616Z,98829.03
2023-11-13T17:45:29.642Z,98831.94
2023-11-13T17:49:31.873Z,98829.84
2023-11-13T17:53:33.936Z,98826.38
2023-11-13T17:57:40.228Z,98836.75
2023-11-13T18:01:42.282Z,98837.56
2023-11-13T18:05:44.383Z,98838.91
2023-11-13T18:09:49.857Z,98834.91
2023-11-13T18:13:52.981Z,98826.88
2023-11-13T18:17:55.384Z,98836.75
2023-11-13T18:21:59.636Z,98830.34
2023-11-13T18:26:01.988Z,98840.25
2023-11-13T18:30:06.264Z,98854.38
2023-11-13T18:34:08.675Z,98861.34
2023-11-13T18:38:11.259Z,98864.00
2023-11-13T18:42:13.920Z,98860.00
2023-11-13T18:46:15.950Z,98868.03
2023-11-13T18:50:18.247Z,98848.78
2023-11-13T18:54:20.818Z,98864.84
2023-11-13T18:58:23.194Z,98857.06
2023-11-13T19:02:25.625Z,98851.72
2023-11-13T19:06:30.846Z,98835.16
2023-11-13T19:10:35.194Z,98848.78
2023-11-13T19:14:38.303Z,98849.84
2023-11-13T19:18:40.436Z,98839.16
2023-11-13T19:22:46.507Z,98833.81
2023-11-13T19:26:51.859Z,98825.78
2023-11-13T19:30:54.522Z,98820.47
2023-11-13T19:34:59.375Z,98830.09
2023-11-13T19:39:01.464Z,98830.09
2023-11-13T19:43:04.628Z,98827.69
2023-11-13T19:47:08.145Z,98822.06
2023-11-13T19:51:12.584Z,98827.97
2023-11-13T19:55:14.756Z,98847.16
2023-11-13T19:59:17.035Z,98843.44
2023-11-13T20:03:22.150Z,98860.50
2023-11-13T20:07:24.753Z,98861.28
2023-11-13T20:11:26.816Z,98866.34
2023-11-13T20:15:29.382Z,98858.09
2023-11-13T20:19:31.414Z,98851.97
2023-11-13T20:23:33.413Z,98851.44
2023-11-13T20:27:36.306Z,98850.09
2023-11-13T20:31:38.704Z,98845.31
2023-11-13T20:35:43.173Z,98839.16
2023-11-13T20:39:45.103Z,98838.63
2023-11-13T20:43:47.284Z,98847.72
2023-11-13T20:47:49.633Z,98854.94
2023-11-13T20:51:53.213Z,98862.94
2023-11-13T20:55:55.677Z,98873.84
2023-11-13T20:59:58.426Z,98871.97
2023-11-13T21:04:00.562Z,98867.97
2023-11-13T21:08:03.332Z,98864.78
2023-11-13T21:12:06.142Z,98853.84
2023-11-13T21:16:08.756Z,98857.81
2023-11-13T21:20:12.419Z,98857.78
2023-11-13T21:24:16.112Z,98832.94
2023-11-13T21:28:18.116Z,98843.28
2023-11-13T21:32:22.183Z,98843.25
2023-11-13T21:36:24.720Z,98861.63
2023-11-13T21:40:27.628Z,98865.63
2023-11-13T21:44:29.766Z,98867.44
2023-11-13T21:48:32.132Z,98858.63
2023-11-13T21:52:34.373Z,98873.31
2023-11-13T21:56:38.912Z,98872.53
2023-11-13T22:00:41.276Z,98873.88
2023-11-13T22:04:43.389Z,98866.19
2023-11-13T22:08:45.625Z,98872.59
2023-11-13T22:12:47.739Z,98860.88
2023-11-13T22:16:49.849Z,98837.63
2023-11-13T22:20:52.031Z,98828.25
2023-11-13T22:24:54.628Z,98832.25
2023-11-13T22:28:57.615Z,98829.00
2023-11-13T22:32:59.714Z,98836.72
2023-11-13T22:37:01.800Z,98829.00
2023-11-13T22:41:06.332Z,98822.59
2023-11-13T22:45:09.127Z,98839.25
2023-11-13T22:49:11.377Z,98865.34
2023-11-13T22:53:14.102Z,98860.38
2023-11-13T22:57:16.615Z,98849.72
2023-11-13T23:01:20.345Z,98843.66
2023-11-13T23:05:24.125Z,98848.47
2023-11-13T23:09:26.099Z,98839.41
2023-11-13T23:13:28.192Z,98840.41
2023-11-13T23:17:30.254Z,98842.91
2023-11-13T23:21:32.384Z,98832.59
2023-11-13T23:25:34.584Z,98844.88
2023-11-13T23:29:36.583Z,98844.25
2023-11-13T23:33:38.700Z,98854.63
2023-11-13T23:37:40.753Z,98852.25
2023-11-13T23:41:43.176Z,98851.19
2023-11-13T23:45:47.724Z,98843.16
2023-11-13T23:49:51.048Z,98850.38
2023-11-13T23:53:53.841Z,98840.13
2023-11-13T23:57:56.033Z,98825.97
